createdAt,value
2022-09-12T00:01:56.313Z,52.31
2022-09-12T00:04:23.720Z,53.62
2022-09-12T00:06:50.850Z,54.10
2022-09-12T00:09:17.969Z,53.39
2022-09-12T00:11:45.743Z,53.47
2022-09-12T00:14:14.408Z,54.30
2022-09-12T00:16:41.737Z,54.06
2022-09-12T00:19:09.432Z,53.06
2022-09-12T00:21:37.208Z,51.91
2022-09-12T00:24:04.575Z,53.02
2022-09-12T00:26:32.009Z,53.54
2022-09-12T00:28:59.173Z,53.29
2022-09-12T00:31:26.581Z,53.97
2022-09-12T00:33:55.552Z,55.30
2022-09-12T00:36:23.787Z,52.79
2022-09-12T00:38:52.031Z,52.77
2022-09-12T00:41:20.597Z,51.52
2022-09-12T00:43:48.892Z,53.12
2022-09-12T00:46:25.185Z,52.99
2022-09-12T00:48:54.485Z,50.65
2022-09-12T00:51:21.588Z,49.68
2022-09-12T00:53:48.866Z,52.28
2022-09-12T00:56:16.497Z,50.34
2022-09-12T00:58:45.227Z,49.04
2022-09-12T01:01:12.451Z,50.17
2022-09-12T01:03:39.923Z,48.94
2022-09-12T01:06:16.939Z,51.56
2022-09-12T01:08:44.679Z,55.28
2022-09-12T01:11:11.827Z,52.40
2022-09-12T01:13:39.067Z,50.85
2022-09-12T01:16:07.537Z,50.70
2022-09-12T01:18:46.905Z,50.96
2022-09-12T01:21:34.839Z,51.73
2022-09-12T01:24:14.800Z,52.17
2022-09-12T01:26:55.076Z,53.80
2022-09-12T01:29:35.831Z,54.73
2022-09-12T01:32:03.225Z,53.03
2022-09-12T01:34:42.718Z,52.24
2022-09-12T01:37:22.524Z,51.63
2022-09-12T01:39:51.592Z,53.10
2022-09-12T01:42:21.079Z,54.67
2022-09-12T01:44:50.829Z,54.10
2022-09-12T01:47:27.083Z,52.73
2022-09-12T01:49:54.718Z,54.56
2022-09-12T01:52:28.499Z,54.21
2022-09-12T01:55:17.769Z,51.38
2022-09-12T01:57:47.174Z,53.39
2022-09-12T02:00:14.599Z,55.84
2022-09-12T02:03:02.988Z,54.82
2022-09-12T02:05:34.461Z,54.53
2022-09-12T02:08:01.549Z,55.59
2022-09-12T02:10:32.795Z,57.39
2022-09-12T02:13:19.226Z,57.96
2022-09-12T02:15:48.575Z,53.69
2022-09-12T02:18:17.703Z,56.70
2022-09-12T02:20:48.516Z,54.15
2022-09-12T02:23:17.692Z,54.82
2022-09-12T02:25:47.594Z,57.29
2022-09-12T02:28:22.340Z,54.77
2022-09-12T02:30:59.000Z,53.58
2022-09-12T02:33:29.815Z,52.46
2022-09-12T02:36:23.445Z,50.85
2022-09-12T02:38:50.572Z,51.62
2022-09-12T02:41:19.150Z,50.20
2022-09-12T02:43:46.684Z,50.94
2022-09-12T02:46:15.549Z,50.11
2022-09-12T02:48:43.128Z,49.89
2022-09-12T02:51:11.054Z,49.50
2022-09-12T02:53:38.168Z,48.40
2022-09-12T02:56:05.975Z,50.71
2022-09-12T02:58:33.314Z,53.77
2022-09-12T03:01:03.533Z,52.92
2022-09-12T03:03:49.424Z,55.50
2022-09-12T03:06:18.600Z,52.36
2022-09-12T03:08:54.997Z,52.29
2022-09-12T03:11:26.549Z,51.79
2022-09-12T03:14:06.216Z,51.82
2022-09-12T03:16:39.272Z,50.67
2022-09-12T03:19:12.555Z,52.06
2022-09-12T03:21:48.730Z,52.62
2022-09-12T03:24:17.236Z,50.45
2022-09-12T03:26:55.410Z,51.92
2022-09-12T03:29:22.924Z,51.67
2022-09-12T03:31:56.946Z,53.47
2022-09-12T03:34:25.211Z,51.88
2022-09-12T03:36:52.659Z,53.97
2022-09-12T03:39:20.383Z,55.87
2022-09-12T03:41:47.783Z,53.60
2022-09-12T03:44:14.938Z,52.96
2022-09-12T03:46:42.059Z,55.12
2022-09-12T03:49:10.758Z,55.37
2022-09-12T03:51:38.119Z,56.88
2022-09-12T03:54:05.643Z,54.71
2022-09-12T03:56:33.019Z,55.68
2022-09-12T03:59:00.124Z,55.53
2022-09-12T04:01:27.302Z,54.92
2022-09-12T04:03:54.744Z,55.00
2022-09-12T04:06:22.118Z,53.23
2022-09-12T04:08:50.525Z,53.94
2022-09-12T04:11:18.183Z,51.87
2022-09-12T04:13:45.453Z,52.75
2022-09-12T04:16:13.272Z,53.26
2022-09-12T04:18:40.704Z,52.43
2022-09-12T04:21:08.823Z,53.02
2022-09-12T04:23:36.021Z,51.02
2022-09-12T04:26:03.918Z,52.10
2022-09-12T04:28:32.522Z,56.12
2022-09-12T04:31:04.084Z,54.81
2022-09-12T04:33:31.638Z,51.70
2022-09-12T04:36:03.035Z,54.83
2022-09-12T04:38:30.156Z,53.56
2022-09-12T04:40:57.563Z,53.41
2022-09-12T04:43:24.683Z,53.63
2022-09-12T04:45:52.038Z,53.17
2022-09-12T04:48:19.521Z,51.90
2022-09-12T04:50:46.633Z,51.79
2022-09-12T04:53:14.878Z,52.59
2022-09-12T04:55:42.279Z,51.25
2022-09-12T04:58:09.376Z,49.65
2022-09-12T05:00:36.467Z,50.80
2022-09-12T05:03:03.860Z,50.46
2022-09-12T05:05:30.981Z,48.20
2022-09-12T05:07:58.121Z,47.69
2022-09-12T05:10:25.478Z,46.25
2022-09-12T05:12:52.689Z,47.11
2022-09-12T05:15:20.827Z,45.59
2022-09-12T05:17:48.677Z,45.03
2022-09-12T05:20:16.513Z,45.16
2022-09-12T05:22:43.642Z,44.29
2022-09-12T05:25:10.986Z,46.73
2022-09-12T05:27:38.189Z,45.62
2022-09-12T05:30:06.162Z,48.33
2022-09-12T05:32:33.712Z,47.96
2022-09-12T05:35:00.871Z,47.58
2022-09-12T05:37:28.761Z,46.85
2022-09-12T05:39:56.147Z,46.23
2022-09-12T05:42:23.514Z,49.51
2022-09-12T05:44:50.634Z,50.36
2022-09-12T05:47:18.908Z,49.15
2022-09-12T05:49:47.970Z,48.67
2022-09-12T05:52:15.140Z,48.24
2022-09-12T05:54:42.637Z,48.20
2022-09-12T05:57:09.886Z,47.02
2022-09-12T05:59:37.987Z,48.36
2022-09-12T06:02:05.408Z,51.97
2022-09-12T06:04:32.809Z,50.25
2022-09-12T06:06:59.907Z,49.84
2022-09-12T06:09:28.093Z,50.08
2022-09-12T06:11:55.991Z,50.09
2022-09-12T06:14:23.207Z,48.39
2022-09-12T06:16:52.990Z,48.80
2022-09-12T06:19:20.830Z,48.01
2022-09-12T06:21:53.407Z,48.77
2022-09-12T06:24:21.214Z,49.41
2022-09-12T06:26:48.558Z,49.56
2022-09-12T06:29:15.940Z,52.13
2022-09-12T06:31:43.718Z,51.06
2022-09-12T06:34:11.714Z,50.43
2022-09-12T06:36:39.643Z,51.74
2022-09-12T06:39:07.930Z,49.37
2022-09-12T06:41:35.040Z,50.19
2022-09-12T06:44:02.304Z,52.25
2022-09-12T06:46:30.948Z,49.61
2022-09-12T06:48:59.700Z,54.20
2022-09-12T06:51:27.573Z,52.91
2022-09-12T06:53:55.894Z,51.58
2022-09-12T06:56:23.900Z,52.50
2022-09-12T06:58:51.259Z,53.34
2022-09-12T07:01:19.648Z,51.86
2022-09-12T07:03:48.769Z,51.86
2022-09-12T07:06:16.908Z,52.45
2022-09-12T07:08:44.324Z,50.83
2022-09-12T07:11:12.593Z,51.20
2022-09-12T07:13:40.147Z,50.04
2022-09-12T07:16:07.703Z,52.73
2022-09-12T07:18:34.919Z,53.22
2022-09-12T07:21:02.420Z,51.57
2022-09-12T07:23:29.849Z,50.63
2022-09-12T07:25:57.652Z,50.09
2022-09-12T07:28:25.015Z,49.32
2022-09-12T07:30:54.000Z,49.98
2022-09-12T07:33:21.691Z,49.82
2022-09-12T07:35:49.601Z,48.58
2022-09-12T07:38:17.025Z,49.96
2022-09-12T07:40:44.217Z,48.32
2022-09-12T07:43:11.351Z,48.63
2022-09-12T07:45:41.762Z,46.50
2022-09-12T07:48:09.177Z,44.50
2022-09-12T07:50:36.780Z,45.90
2022-09-12T07:53:04.630Z,44.75
2022-09-12T07:55:31.710Z,43.36
2022-09-12T07:57:59.021Z,43.14
2022-09-12T08:00:35.696Z,47.60
2022-09-12T08:03:03.867Z,45.75
2022-09-12T08:05:31.019Z,43.89
2022-09-12T08:07:58.148Z,45.32
2022-09-12T08:10:25.533Z,44.60
2022-09-12T08:12:52.632Z,43.54
2022-09-12T08:15:20.335Z,42.79
2022-09-12T08:17:47.748Z,41.63
2022-09-12T08:20:14.993Z,40.69
2022-09-12T08:22:43.236Z,43.21
2022-09-12T08:25:10.868Z,42.34
2022-09-12T08:27:37.982Z,41.25
2022-09-12T08:30:06.181Z,41.47
2022-09-12T08:32:34.813Z,42.66
2022-09-12T08:35:01.932Z,45.28
2022-09-12T08:37:32.930Z,44.34
2022-09-12T08:40:00.370Z,44.02
2022-09-12T08:42:44.027Z,42.57
2022-09-12T08:45:17.719Z,41.90
2022-09-12T08:47:44.839Z,42.15
2022-09-12T08:50:15.373Z,42.54
2022-09-12T08:52:58.496Z,43.44
2022-09-12T08:55:27.973Z,42.60
2022-09-12T08:57:55.107Z,42.88
2022-09-12T09:00:22.629Z,41.76
2022-09-12T09:03:00.085Z,42.21
2022-09-12T09:05:34.334Z,40.70
2022-09-12T09:08:10.995Z,40.16
2022-09-12T09:10:48.828Z,39.95
2022-09-12T09:13:39.166Z,39.44
2022-09-12T09:16:09.941Z,38.75
2022-09-12T09:18:37.385Z,39.39
2022-09-12T09:21:33.652Z,39.47
2022-09-12T09:24:02.654Z,39.21
2022-09-12T09:26:33.615Z,37.86
2022-09-12T09:29:11.371Z,39.08
2022-09-12T09:31:38.795Z,36.41
2022-09-12T09:34:21.919Z,37.58
2022-09-12T09:36:50.975Z,38.58
2022-09-12T09:39:31.950Z,39.61
2022-09-12T09:42:19.293Z,39.97
2022-09-12T09:44:48.267Z,39.76
2022-09-12T09:47:15.459Z,39.74
2022-09-12T09:49:42.792Z,38.60
2022-09-12T09:52:11.478Z,37.78
2022-09-12T09:54:49.473Z,38.74
2022-09-12T09:57:37.139Z,38.35
2022-09-12T10:00:24.049Z,36.49
2022-09-12T10:03:00.923Z,38.82
2022-09-12T10:05:28.746Z,39.44
2022-09-12T10:07:56.149Z,36.56
2022-09-12T10:10:23.364Z,37.71
2022-09-12T10:12:50.525Z,38.04
2022-09-12T10:15:19.027Z,37.66
2022-09-12T10:17:47.115Z,36.84
2022-09-12T10:20:32.849Z,38.49
2022-09-12T10:23:00.566Z,37.02
2022-09-12T10:25:27.685Z,37.33
2022-09-12T10:27:56.485Z,35.08
2022-09-12T10:30:28.182Z,36.00
2022-09-12T10:33:04.846Z,36.29
2022-09-12T10:35:42.021Z,37.83
2022-09-12T10:38:22.715Z,37.66
2022-09-12T10:40:55.657Z,36.34
2022-09-12T10:43:25.992Z,36.71
2022-09-12T10:46:02.822Z,37.28
2022-09-12T10:48:31.796Z,37.48
2022-09-12T10:50:59.662Z,38.29
2022-09-12T10:53:31.106Z,38.77
2022-09-12T10:56:06.320Z,39.08
2022-09-12T10:58:36.689Z,39.13
2022-09-12T11:01:14.064Z,38.55
2022-09-12T11:03:41.169Z,40.02
2022-09-12T11:06:08.570Z,39.50
2022-09-12T11:08:51.854Z,39.86
2022-09-12T11:11:25.247Z,39.92
2022-09-12T11:13:55.289Z,41.00
2022-09-12T11:16:23.129Z,39.57
2022-09-12T11:18:53.560Z,40.68
2022-09-12T11:21:45.097Z,40.94
2022-09-12T11:24:16.215Z,42.51
2022-09-12T11:26:58.998Z,41.50
2022-09-12T11:29:26.293Z,39.47
2022-09-12T11:32:05.396Z,39.80
2022-09-12T11:34:38.866Z,39.52
2022-09-12T11:37:17.834Z,39.55
2022-09-12T11:39:45.865Z,38.71
2022-09-12T11:42:15.695Z,38.23
2022-09-12T11:44:43.778Z,37.60
2022-09-12T11:47:12.118Z,38.63
2022-09-12T11:49:49.617Z,38.02
2022-09-12T11:52:18.710Z,39.58
2022-09-12T11:55:01.244Z,39.22
2022-09-12T11:57:44.889Z,39.57
2022-09-12T12:00:17.727Z,41.37
2022-09-12T12:02:51.215Z,42.14
2022-09-12T12:05:25.498Z,40.99
2022-09-12T12:07:55.545Z,40.00
2022-09-12T12:10:26.687Z,40.57
2022-09-12T12:12:54.585Z,39.51
2022-09-12T12:15:21.726Z,39.66
2022-09-12T12:18:02.590Z,41.88
2022-09-12T12:20:30.008Z,40.51
2022-09-12T12:22:57.137Z,39.27
2022-09-12T12:25:40.996Z,40.23
2022-09-12T12:28:09.131Z,38.84
2022-09-12T12:30:36.167Z,37.73
2022-09-12T12:33:10.188Z,39.23
2022-09-12T12:35:46.746Z,39.12
2022-09-12T12:38:34.079Z,37.77
2022-09-12T12:41:16.702Z,37.58
2022-09-12T12:43:44.723Z,39.46
2022-09-12T12:46:19.218Z,38.09
2022-09-12T12:48:50.645Z,38.73
2022-09-12T12:51:27.243Z,39.54
2022-09-12T12:53:54.346Z,37.36
2022-09-12T12:56:35.603Z,39.08
2022-09-12T12:59:04.327Z,38.35
2022-09-12T13:01:31.797Z,38.52
2022-09-12T13:03:59.870Z,40.25
2022-09-12T13:06:37.057Z,37.90
2022-09-12T13:09:06.038Z,38.23
2022-09-12T13:11:39.398Z,36.16
2022-09-12T13:14:09.508Z,36.09
2022-09-12T13:16:37.613Z,37.42
2022-09-12T13:19:05.993Z,37.91
2022-09-12T13:21:33.391Z,37.30
2022-09-12T13:24:13.861Z,36.37
2022-09-12T13:26:42.915Z,36.00
2022-09-12T13:29:10.849Z,35.14
2022-09-12T13:31:38.012Z,34.86
2022-09-12T13:34:05.559Z,36.18
2022-09-12T13:36:37.468Z,35.62
2022-09-12T13:39:04.503Z,36.16
2022-09-12T13:41:38.140Z,35.51
2022-09-12T13:44:07.838Z,35.98
2022-09-12T13:46:35.335Z,33.42
2022-09-12T13:49:06.113Z,34.58
2022-09-12T13:51:33.272Z,34.78
2022-09-12T13:54:02.584Z,35.08
2022-09-12T13:56:29.884Z,34.97
2022-09-12T13:58:58.958Z,35.56
2022-09-12T14:01:42.290Z,34.38
2022-09-12T14:04:35.802Z,34.03
2022-09-12T14:07:08.152Z,33.20
2022-09-12T14:09:38.591Z,33.16
2022-09-12T14:12:11.166Z,34.33
2022-09-12T14:14:42.144Z,33.77
2022-09-12T14:17:23.808Z,34.22
2022-09-12T14:19:52.794Z,34.57
2022-09-12T14:22:19.914Z,33.52
2022-09-12T14:24:50.129Z,33.54
2022-09-12T14:27:29.114Z,34.31
2022-09-12T14:30:01.870Z,33.03
2022-09-12T14:32:29.309Z,32.69
2022-09-12T14:35:11.593Z,33.80
2022-09-12T14:37:38.996Z,33.35
2022-09-12T14:40:26.594Z,33.92
2022-09-12T14:42:56.903Z,33.10
2022-09-12T14:45:30.281Z,34.08
2022-09-12T14:47:57.643Z,33.11
2022-09-12T14:50:29.610Z,32.55
2022-09-12T14:53:06.928Z,32.92
2022-09-12T14:55:35.032Z,32.06
2022-09-12T14:58:20.242Z,31.15
2022-09-12T15:00:56.870Z,32.28
2022-09-12T15:03:31.308Z,32.72
2022-09-12T15:05:58.974Z,33.22
2022-09-12T15:08:26.101Z,32.73
2022-09-12T15:10:53.504Z,32.79
2022-09-12T15:13:22.036Z,32.05
2022-09-12T15:15:53.581Z,32.75
2022-09-12T15:18:21.335Z,32.41
2022-09-12T15:20:49.376Z,32.26
2022-09-12T15:23:38.173Z,32.92
2022-09-12T15:26:06.414Z,32.47
2022-09-12T15:28:33.631Z,32.07
2022-09-12T15:31:05.418Z,32.92
2022-09-12T15:33:33.177Z,31.62
2022-09-12T15:36:00.302Z,32.99
2022-09-12T15:38:27.639Z,31.48
2022-09-12T15:40:55.143Z,32.05
2022-09-12T15:43:22.438Z,33.84
2022-09-12T15:45:51.445Z,32.54
2022-09-12T15:48:19.190Z,31.29
2022-09-12T15:50:46.372Z,33.74
2022-09-12T15:53:15.021Z,32.63
2022-09-12T15:55:42.438Z,32.70
2022-09-12T15:58:09.524Z,32.67
2022-09-12T16:00:36.659Z,32.90
2022-09-12T16:03:04.854Z,32.64
2022-09-12T16:05:32.307Z,31.75
2022-09-12T16:07:59.512Z,32.40
2022-09-12T16:10:28.274Z,32.39
2022-09-12T16:12:55.679Z,32.43
2022-09-12T16:15:23.690Z,31.58
2022-09-12T16:17:51.276Z,33.14
2022-09-12T16:20:19.289Z,32.47
2022-09-12T16:22:46.400Z,32.40
2022-09-12T16:25:13.836Z,32.32
2022-09-12T16:27:41.147Z,32.77
2022-09-12T16:30:08.688Z,31.90
2022-09-12T16:32:36.190Z,31.15
2022-09-12T16:35:03.443Z,31.22
2022-09-12T16:37:31.172Z,32.32
2022-09-12T16:39:59.048Z,31.55
2022-09-12T16:42:26.334Z,31.44
2022-09-12T16:44:53.442Z,30.76
2022-09-12T16:47:20.816Z,31.03
2022-09-12T16:49:48.190Z,31.00
2022-09-12T16:52:16.644Z,29.80
2022-09-12T16:54:46.811Z,30.72
2022-09-12T16:57:14.053Z,31.62
2022-09-12T16:59:41.879Z,30.56
2022-09-12T17:02:12.493Z,30.35
2022-09-12T17:04:39.850Z,30.00
2022-09-12T17:07:08.115Z,30.89
2022-09-12T17:09:35.490Z,31.05
2022-09-12T17:12:02.714Z,30.48
2022-09-12T17:14:29.840Z,30.87
2022-09-12T17:16:57.203Z,31.10
2022-09-12T17:19:29.769Z,30.53
2022-09-12T17:21:57.599Z,29.87
2022-09-12T17:24:24.783Z,30.47
2022-09-12T17:26:52.045Z,30.76
2022-09-12T17:29:19.770Z,30.82
2022-09-12T17:31:46.957Z,30.37
2022-09-12T17:34:14.563Z,30.90
2022-09-12T17:36:44.465Z,30.77
2022-09-12T17:39:12.258Z,31.35
2022-09-12T17:41:39.496Z,30.62
2022-09-12T17:44:07.654Z,31.59
2022-09-12T17:46:37.121Z,32.15
2022-09-12T17:49:05.777Z,32.34
2022-09-12T17:51:33.390Z,31.75
2022-09-12T17:54:01.495Z,31.38
2022-09-12T17:56:29.632Z,31.89
2022-09-12T17:58:57.414Z,31.95
2022-09-12T18:01:44.020Z,32.48
2022-09-12T18:04:11.548Z,31.82
2022-09-12T18:06:40.215Z,32.27
2022-09-12T18:09:08.865Z,32.10
2022-09-12T18:11:36.913Z,31.36
2022-09-12T18:14:04.434Z,31.79
2022-09-12T18:16:32.197Z,32.15
2022-09-12T18:19:01.719Z,31.74
2022-09-12T18:21:29.218Z,30.97
2022-09-12T18:23:59.218Z,31.50
2022-09-12T18:26:27.433Z,31.46
2022-09-12T18:28:55.057Z,31.75
2022-09-12T18:31:24.039Z,31.17
2022-09-12T18:33:52.015Z,31.13
2022-09-12T18:36:21.076Z,31.72
2022-09-12T18:38:49.231Z,32.24
2022-09-12T18:41:17.882Z,31.57
2022-09-12T18:43:45.908Z,31.44
2022-09-12T18:46:14.321Z,32.48
2022-09-12T18:48:44.535Z,32.15
2022-09-12T18:51:12.462Z,33.17
2022-09-12T18:53:40.247Z,33.97
2022-09-12T18:56:09.758Z,33.52
2022-09-12T18:58:37.998Z,33.45
2022-09-12T19:01:15.891Z,33.02
2022-09-12T19:03:44.080Z,32.64
2022-09-12T19:06:17.441Z,32.36
2022-09-12T19:08:45.310Z,32.89
2022-09-12T19:11:12.849Z,33.00
2022-09-12T19:13:41.637Z,32.87
2022-09-12T19:16:11.843Z,33.51
2022-09-12T19:18:40.051Z,33.29
2022-09-12T19:21:08.571Z,33.12
2022-09-12T19:23:36.515Z,32.75
2022-09-12T19:26:05.320Z,33.02
2022-09-12T19:28:34.509Z,33.10
2022-09-12T19:31:06.801Z,33.44
2022-09-12T19:33:34.831Z,33.22
2022-09-12T19:36:03.584Z,33.83
2022-09-12T19:38:31.921Z,33.62
2022-09-12T19:40:59.983Z,33.68
2022-09-12T19:43:27.733Z,33.92
2022-09-12T19:45:55.961Z,33.82
2022-09-12T19:48:23.572Z,33.92
2022-09-12T19:50:51.054Z,33.81
2022-09-12T19:53:18.613Z,33.78
2022-09-12T19:55:46.203Z,33.67
2022-09-12T19:58:13.784Z,33.57
2022-09-12T20:00:41.244Z,33.70
2022-09-12T20:03:09.027Z,33.63
2022-09-12T20:05:40.745Z,33.54
2022-09-12T20:08:09.966Z,33.30
2022-09-12T20:10:37.387Z,33.46
2022-09-12T20:13:05.408Z,33.26
2022-09-12T20:15:32.786Z,33.67
2022-09-12T20:18:00.127Z,33.69
2022-09-12T20:20:27.563Z,33.49
2022-09-12T20:22:54.946Z,33.29
2022-09-12T20:25:22.084Z,33.61
2022-09-12T20:27:49.396Z,33.75
2022-09-12T20:30:17.113Z,34.12
2022-09-12T20:32:44.247Z,34.10
2022-09-12T20:35:11.439Z,33.71
2022-09-12T20:37:40.464Z,33.85
2022-09-12T20:40:08.561Z,33.53
2022-09-12T20:42:36.076Z,33.35
2022-09-12T20:45:04.526Z,33.49
2022-09-12T20:47:31.728Z,33.34
2022-09-12T20:49:58.876Z,33.31
2022-09-12T20:52:27.254Z,33.23
2022-09-12T20:54:54.378Z,33.48
2022-09-12T20:57:21.500Z,33.17
2022-09-12T20:59:48.923Z,32.87
2022-09-12T21:02:16.317Z,33.49
2022-09-12T21:04:43.614Z,33.32
2022-09-12T21:07:10.982Z,33.77
2022-09-12T21:09:38.108Z,33.85
2022-09-12T21:12:05.325Z,34.09
2022-09-12T21:14:32.698Z,34.08
2022-09-12T21:16:59.806Z,34.36
2022-09-12T21:19:26.963Z,34.42
2022-09-12T21:21:54.420Z,34.04
2022-09-12T21:24:21.581Z,34.01
2022-09-12T21:26:48.826Z,33.72
2022-09-12T21:29:16.184Z,34.17
2022-09-12T21:31:43.461Z,34.51
2022-09-12T21:34:10.599Z,34.49
2022-09-12T21:36:38.017Z,34.54
2022-09-12T21:39:05.345Z,34.74
2022-09-12T21:41:32.480Z,34.63
2022-09-12T21:43:59.897Z,34.67
2022-09-12T21:46:27.077Z,34.87
2022-09-12T21:48:54.252Z,34.92
2022-09-12T21:51:21.639Z,34.69
2022-09-12T21:53:48.811Z,34.42
2022-09-12T21:56:15.947Z,34.91
2022-09-12T21:58:43.934Z,34.61
2022-09-12T22:01:13.901Z,34.29
2022-09-12T22:03:43.098Z,34.64
2022-09-12T22:06:10.217Z,34.51
2022-09-12T22:08:38.739Z,34.86
2022-09-12T22:11:09.404Z,34.72
2022-09-12T22:13:37.486Z,34.82
2022-09-12T22:16:05.041Z,34.86
2022-09-12T22:18:33.046Z,34.79
2022-09-12T22:21:06.796Z,34.70
2022-09-12T22:23:53.035Z,34.86
2022-09-12T22:26:20.475Z,35.17
2022-09-12T22:28:48.038Z,34.89
2022-09-12T22:31:15.299Z,35.32
2022-09-12T22:33:42.624Z,35.04
2022-09-12T22:36:10.039Z,34.74
2022-09-12T22:38:37.247Z,34.89
2022-09-12T22:41:08.226Z,34.87
2022-09-12T22:43:35.670Z,34.75
2022-09-12T22:46:05.809Z,34.97
2022-09-12T22:48:32.956Z,35.21
2022-09-12T22:51:00.338Z,34.91
2022-09-12T22:53:27.436Z,35.29
2022-09-12T22:55:54.546Z,35.05
2022-09-12T22:58:21.940Z,35.48
2022-09-12T23:00:50.241Z,35.81
2022-09-12T23:03:17.627Z,36.02
2022-09-12T23:05:45.400Z,35.79
2022-09-12T23:08:12.798Z,35.93
2022-09-12T23:10:40.168Z,35.86
2022-09-12T23:13:07.561Z,35.74
2022-09-12T23:15:34.640Z,35.95
2022-09-12T23:18:05.033Z,35.74
2022-09-12T23:20:32.707Z,35.66
2022-09-12T23:22:59.874Z,35.37
2022-09-12T23:25:26.994Z,35.72
2022-09-12T23:27:54.392Z,35.78
2022-09-12T23:30:21.637Z,35.95
2022-09-12T23:32:49.037Z,35.96
2022-09-12T23:35:18.428Z,35.91
2022-09-12T23:37:46.213Z,36.11
2022-09-12T23:40:13.673Z,36.21
2022-09-12T23:42:41.252Z,35.98
2022-09-12T23:45:08.708Z,35.71
2022-09-12T23:47:35.820Z,35.32
2022-09-12T23:50:03.556Z,35.33
2022-09-12T23:52:30.919Z,35.42
2022-09-12T23:54:58.049Z,35.08
2022-09-12T23:57:25.441Z,35.32
2022-09-12T23:59:52.556Z,35.25
